createdAt,value
2023-02-05T00:00:20.972Z,101464.44
2023-02-05T00:02:47.577Z,101460.69
2023-02-05T00:05:14.372Z,101458.59
2023-02-05T00:07:40.938Z,101462.47
2023-02-05T00:10:07.914Z,101472.19
2023-02-05T00:12:34.614Z,101468.47
2023-02-05T00:15:01.186Z,101475.47
2023-02-05T00:17:28.682Z,101462.28
2023-02-05T00:19:55.605Z,101466.81
2023-02-05T00:22:22.311Z,101458.34
2023-02-05T00:24:48.915Z,101454.88
2023-02-05T00:27:15.589Z,101461.22
2023-02-05T00:29:42.148Z,101462.41
2023-02-05T00:32:08.667Z,101463.97
2023-02-05T00:34:35.211Z,101456.66
2023-02-05T00:37:01.844Z,101456.78
2023-02-05T00:39:28.362Z,101446.41
2023-02-05T00:41:55.014Z,101445.72
2023-02-05T00:44:21.559Z,101438.25
2023-02-05T00:46:48.096Z,101434.50
2023-02-05T00:49:14.721Z,101436.16
2023-02-05T00:51:41.290Z,101437.78
2023-02-05T00:54:07.925Z,101431.09
2023-02-05T00:56:34.447Z,101433.59
2023-02-05T00:59:02.653Z,101439.78
2023-02-05T01:01:29.356Z,101437.31
2023-02-05T01:03:56.054Z,101431.50
2023-02-05T01:06:22.641Z,101424.47
2023-02-05T01:08:49.175Z,101422.00
2023-02-05T01:11:16.091Z,101421.78
2023-02-05T01:13:42.635Z,101417.66
2023-02-05T01:16:10.696Z,101420.81
2023-02-05T01:18:37.328Z,101424.53
2023-02-05T01:21:04.350Z,101417.97
2023-02-05T01:23:30.910Z,101408.47
2023-02-05T01:25:57.462Z,101402.66
2023-02-05T01:28:24.063Z,101402.66
2023-02-05T01:30:51.598Z,101406.06
2023-02-05T01:33:19.387Z,101397.53
2023-02-05T01:35:46.468Z,101413.69
2023-02-05T01:38:13.500Z,101410.53
2023-02-05T01:40:40.876Z,101414.88
2023-02-05T01:43:13.121Z,101417.56
2023-02-05T01:45:51.636Z,101414.28
2023-02-05T01:48:27.906Z,101394.25
2023-02-05T01:50:59.391Z,101388.88
2023-02-05T01:53:30.318Z,101392.63
2023-02-05T01:56:01.587Z,101393.22
2023-02-05T01:58:32.625Z,101391.78
2023-02-05T02:00:59.704Z,101399.66
2023-02-05T02:03:30.416Z,101399.06
2023-02-05T02:05:57.547Z,101396.38
2023-02-05T02:08:24.475Z,101397.63
2023-02-05T02:10:52.698Z,101391.91
2023-02-05T02:13:22.894Z,101389.06
2023-02-05T02:15:50.447Z,101376.66
2023-02-05T02:18:28.648Z,101367.97
2023-02-05T02:21:19.255Z,101353.34
2023-02-05T02:24:14.098Z,101343.63
2023-02-05T02:27:10.930Z,101338.25
2023-02-05T02:29:57.541Z,101342.44
2023-02-05T02:32:49.433Z,101329.22
2023-02-05T02:35:47.282Z,101330.50
2023-02-05T02:38:33.526Z,101332.00
2023-02-05T02:41:11.876Z,101343.81
2023-02-05T02:44:10.977Z,101350.03
2023-02-05T02:46:44.449Z,101344.25
2023-02-05T02:49:35.245Z,101329.03
2023-02-05T02:52:06.361Z,101326.13
2023-02-05T02:54:36.233Z,101329.16
2023-02-05T02:57:07.894Z,101329.16
2023-02-05T02:59:38.288Z,101320.50
2023-02-05T03:02:06.650Z,101328.19
2023-02-05T03:04:44.451Z,101345.63
2023-02-05T03:07:17.684Z,101351.16
2023-02-05T03:10:03.232Z,101344.72
2023-02-05T03:12:30.809Z,101353.03
2023-02-05T03:14:57.795Z,101356.38
2023-02-05T03:17:26.141Z,101348.78
2023-02-05T03:19:59.590Z,101344.28
2023-02-05T03:22:26.144Z,101331.88
2023-02-05T03:24:53.324Z,101333.31
2023-02-05T03:27:23.034Z,101339.06
2023-02-05T03:29:50.574Z,101342.09
2023-02-05T03:32:17.099Z,101344.97
2023-02-05T03:35:01.848Z,101345.19
2023-02-05T03:37:43.635Z,101351.34
2023-02-05T03:40:28.432Z,101358.03
2023-02-05T03:43:13.155Z,101368.78
2023-02-05T03:46:01.335Z,101373.34
2023-02-05T03:48:37.964Z,101381.06
2023-02-05T03:51:16.417Z,101377.53
2023-02-05T03:54:01.070Z,101370.13
2023-02-05T03:56:36.099Z,101378.66
2023-02-05T03:59:04.348Z,101385.03
2023-02-05T04:01:31.970Z,101380.97
2023-02-05T04:03:58.542Z,101380.13
2023-02-05T04:06:25.126Z,101382.81
2023-02-05T04:08:51.749Z,101385.50
2023-02-05T04:11:18.282Z,101379.53
2023-02-05T04:13:44.942Z,101382.22
2023-02-05T04:16:11.558Z,101379.91
2023-02-05T04:18:38.075Z,101387.13
2023-02-05T04:21:04.996Z,101374.75
2023-02-05T04:23:31.866Z,101378.88
2023-02-05T04:25:58.420Z,101373.88
2023-02-05T04:28:24.975Z,101359.38
2023-02-05T04:30:51.831Z,101365.59
2023-02-05T04:33:18.431Z,101358.94
2023-02-05T04:35:45.047Z,101357.91
2023-02-05T04:38:11.785Z,101350.19
2023-02-05T04:40:38.370Z,101345.97
2023-02-05T04:43:04.954Z,101347.66
2023-02-05T04:45:33.604Z,101354.44
2023-02-05T04:48:00.892Z,101355.03
2023-02-05T04:50:27.571Z,101354.81
2023-02-05T04:52:54.417Z,101366.81
2023-02-05T04:55:21.267Z,101371.63
2023-02-05T04:57:47.809Z,101375.34
2023-02-05T05:00:15.145Z,101366.69
2023-02-05T05:02:41.732Z,101364.00
2023-02-05T05:05:08.901Z,101377.47
2023-02-05T05:07:35.561Z,101373.13
2023-02-05T05:10:02.105Z,101372.88
2023-02-05T05:12:28.671Z,101369.38
2023-02-05T05:14:56.010Z,101388.00
2023-02-05T05:17:22.544Z,101377.47
2023-02-05T05:19:49.089Z,101382.84
2023-02-05T05:22:15.684Z,101371.47
2023-02-05T05:24:42.237Z,101375.81
2023-02-05T05:27:08.828Z,101371.25
2023-02-05T05:29:36.099Z,101387.16
2023-02-05T05:32:02.768Z,101376.63
2023-02-05T05:34:29.370Z,101375.34
2023-02-05T05:36:55.940Z,101379.47
2023-02-05T05:39:41.436Z,101388.59
2023-02-05T05:42:30.444Z,101409.06
2023-02-05T05:44:57.004Z,101408.22
2023-02-05T05:47:23.562Z,101405.53
2023-02-05T05:49:50.200Z,101398.50
2023-02-05T05:52:16.934Z,101393.38
2023-02-05T05:54:43.458Z,101394.19
2023-02-05T05:57:10.123Z,101386.25
2023-02-05T05:59:36.833Z,101389.88
2023-02-05T06:02:04.593Z,101390.78
2023-02-05T06:04:31.286Z,101389.19
2023-02-05T06:06:59.252Z,101390.41
2023-02-05T06:09:25.839Z,101396.47
2023-02-05T06:11:52.377Z,101384.03
2023-02-05T06:14:18.954Z,101384.97
2023-02-05T06:16:45.549Z,101389.13
2023-02-05T06:19:12.205Z,101387.00
2023-02-05T06:21:38.720Z,101385.47
2023-02-05T06:24:05.636Z,101382.31
2023-02-05T06:26:32.166Z,101383.44
2023-02-05T06:29:03.218Z,101380.38
2023-02-05T06:31:30.967Z,101379.59
2023-02-05T06:33:57.624Z,101373.38
2023-02-05T06:36:24.491Z,101368.06
2023-02-05T06:38:51.052Z,101383.63
2023-02-05T06:41:17.583Z,101384.31
2023-02-05T06:43:44.206Z,101387.91
2023-02-05T06:46:10.764Z,101393.13
2023-02-05T06:48:37.308Z,101387.63
2023-02-05T06:51:04.183Z,101385.97
2023-02-05T06:53:30.691Z,101380.00
2023-02-05T06:56:00.085Z,101383.75
2023-02-05T06:58:26.758Z,101388.28
2023-02-05T07:00:53.309Z,101393.66
2023-02-05T07:03:19.917Z,101393.31
2023-02-05T07:05:46.442Z,101396.00
2023-02-05T07:08:13.046Z,101379.88
2023-02-05T07:10:39.641Z,101381.72
2023-02-05T07:13:06.203Z,101382.97
2023-02-05T07:15:33.284Z,101374.28
2023-02-05T07:18:00.116Z,101372.44
2023-02-05T07:20:26.774Z,101359.66
2023-02-05T07:22:53.295Z,101358.16
2023-02-05T07:25:19.883Z,101369.53
2023-02-05T07:27:46.526Z,101361.03
2023-02-05T07:30:13.763Z,101356.00
2023-02-05T07:32:40.354Z,101350.63
2023-02-05T07:35:06.998Z,101363.88
2023-02-05T07:37:33.602Z,101362.81
2023-02-05T07:40:00.198Z,101367.16
2023-02-05T07:42:26.780Z,101374.97
2023-02-05T07:44:53.305Z,101358.41
2023-02-05T07:47:19.865Z,101365.06
2023-02-05T07:49:46.402Z,101372.28
2023-02-05T07:52:12.980Z,101377.47
2023-02-05T07:54:40.079Z,101374.75
2023-02-05T07:57:07.068Z,101376.63
2023-02-05T07:59:33.822Z,101366.69
2023-02-05T08:02:00.396Z,101367.28
2023-02-05T08:04:27.053Z,101377.00
2023-02-05T08:06:53.734Z,101379.22
2023-02-05T08:09:20.321Z,101380.28
2023-02-05T08:11:46.976Z,101385.66
2023-02-05T08:14:13.531Z,101381.91
2023-02-05T08:16:40.573Z,101380.66
2023-02-05T08:19:12.522Z,101383.09
2023-02-05T08:21:39.396Z,101382.06
2023-02-05T08:24:06.123Z,101389.91
2023-02-05T08:26:32.717Z,101395.09
2023-02-05T08:28:59.906Z,101391.34
2023-02-05T08:31:26.890Z,101400.81
2023-02-05T08:33:54.975Z,101400.34
2023-02-05T08:36:21.538Z,101400.53
2023-02-05T08:38:48.646Z,101401.91
2023-02-05T08:41:15.588Z,101394.44
2023-02-05T08:43:47.946Z,101387.53
2023-02-05T08:46:19.379Z,101388.16
2023-02-05T08:48:48.254Z,101386.53
2023-02-05T08:51:15.363Z,101387.09
2023-02-05T08:53:42.285Z,101392.03
2023-02-05T08:56:10.920Z,101382.31
2023-02-05T08:58:38.995Z,101388.03
2023-02-05T09:01:08.891Z,101382.44
2023-02-05T09:03:35.521Z,101378.69
2023-02-05T09:06:08.679Z,101366.28
2023-02-05T09:08:36.052Z,101372.72
2023-02-05T09:11:03.631Z,101365.25
2023-02-05T09:13:30.237Z,101363.25
2023-02-05T09:15:57.026Z,101365.50
2023-02-05T09:18:23.619Z,101354.28
2023-02-05T09:20:51.221Z,101363.41
2023-02-05T09:23:19.104Z,101359.69
2023-02-05T09:25:46.021Z,101349.97
2023-02-05T09:28:14.414Z,101347.69
2023-02-05T09:30:43.617Z,101343.94
2023-02-05T09:33:11.214Z,101352.03
2023-02-05T09:35:38.051Z,101346.53
2023-02-05T09:38:05.706Z,101357.16
2023-02-05T09:40:55.291Z,101346.88
2023-02-05T09:43:52.722Z,101351.19
2023-02-05T09:46:56.139Z,101345.81
2023-02-05T09:49:30.268Z,101347.44
2023-02-05T09:52:09.834Z,101337.16
2023-02-05T09:54:42.010Z,101345.81
2023-02-05T09:57:15.382Z,101333.88
2023-02-05T09:59:45.942Z,101339.25
2023-02-05T10:02:34.100Z,101343.47
2023-02-05T10:05:00.697Z,101331.19
2023-02-05T10:07:42.202Z,101337.16
2023-02-05T10:10:29.941Z,101344.88
2023-02-05T10:13:30.673Z,101345.00
2023-02-05T10:16:32.164Z,101347.03
2023-02-05T10:19:35.230Z,101340.94
2023-02-05T10:22:12.788Z,101338.25
2023-02-05T10:24:57.468Z,101336.94
2023-02-05T10:27:35.407Z,101338.91
2023-02-05T10:30:24.715Z,101340.91
2023-02-05T10:33:08.360Z,101345.22
2023-02-05T10:35:44.663Z,101340.44
2023-02-05T10:38:24.318Z,101339.16
2023-02-05T10:41:00.368Z,101337.75
2023-02-05T10:43:40.553Z,101339.78
2023-02-05T10:46:13.351Z,101327.69
2023-02-05T10:48:45.340Z,101324.22
2023-02-05T10:51:15.196Z,101335.06
2023-02-05T10:53:42.042Z,101319.13
2023-02-05T10:56:14.727Z,101320.34
2023-02-05T10:58:41.538Z,101308.16
2023-02-05T11:01:14.643Z,101328.31
2023-02-05T11:03:48.257Z,101314.06
2023-02-05T11:06:15.636Z,101312.16
2023-02-05T11:08:44.349Z,101311.47
2023-02-05T11:11:40.227Z,101311.38
2023-02-05T11:14:07.762Z,101326.69
2023-02-05T11:16:39.133Z,101320.38
2023-02-05T11:19:18.813Z,101313.81
2023-02-05T11:21:46.836Z,101308.66
2023-02-05T11:24:29.038Z,101323.28
2023-02-05T11:27:14.315Z,101301.16
2023-02-05T11:29:41.075Z,101298.56
2023-02-05T11:32:31.891Z,101282.75
2023-02-05T11:35:18.164Z,101284.00
2023-02-05T11:37:47.543Z,101283.75
2023-02-05T11:40:22.825Z,101310.25
2023-02-05T11:43:24.233Z,101303.00
2023-02-05T11:45:53.803Z,101281.22
2023-02-05T11:48:28.577Z,101291.53
2023-02-05T11:50:55.329Z,101299.03
2023-02-05T11:53:22.478Z,101310.41
2023-02-05T11:55:56.610Z,101298.56
2023-02-05T11:58:37.023Z,101344.28
2023-02-05T12:01:20.212Z,101333.13
2023-02-05T12:04:14.784Z,101314.09
2023-02-05T12:06:53.439Z,101303.19
2023-02-05T12:09:22.701Z,101315.63
2023-02-05T12:12:23.551Z,101308.59
2023-02-05T12:15:19.581Z,101310.81
2023-02-05T12:18:16.563Z,101322.31
2023-02-05T12:21:18.220Z,101315.53
2023-02-05T12:24:12.420Z,101319.63
2023-02-05T12:26:47.329Z,101319.53
2023-02-05T12:29:42.017Z,101317.56
2023-02-05T12:32:32.837Z,101337.00
2023-02-05T12:35:09.894Z,101312.63
2023-02-05T12:37:51.399Z,101332.34
2023-02-05T12:40:40.943Z,101297.31
2023-02-05T12:43:25.976Z,101289.44
2023-02-05T12:46:07.853Z,101293.66
2023-02-05T12:48:48.814Z,101300.22
2023-02-05T12:51:27.280Z,101303.38
2023-02-05T12:54:11.774Z,101303.28
2023-02-05T12:56:41.369Z,101307.25
2023-02-05T12:59:14.252Z,101303.28
2023-02-05T13:01:49.192Z,101320.38
2023-02-05T13:04:24.004Z,101293.44
2023-02-05T13:07:00.649Z,101292.25
2023-02-05T13:09:56.717Z,101302.44
2023-02-05T13:12:27.285Z,101295.88
2023-02-05T13:15:02.737Z,101298.00
2023-02-05T13:17:40.469Z,101300.47
2023-02-05T13:20:19.953Z,101303.88
2023-02-05T13:23:23.797Z,101309.13
2023-02-05T13:26:08.648Z,101313.94
2023-02-05T13:28:42.740Z,101300.66
2023-02-05T13:31:24.442Z,101315.41
2023-02-05T13:33:53.786Z,101314.81
2023-02-05T13:36:27.353Z,101301.22
2023-02-05T13:39:02.094Z,101308.72
2023-02-05T13:42:02.132Z,101301.81
2023-02-05T13:44:51.198Z,101303.13
2023-02-05T13:47:43.061Z,101299.47
2023-02-05T13:50:42.060Z,101292.44
2023-02-05T13:53:37.642Z,101296.19
2023-02-05T13:56:41.744Z,101280.28
2023-02-05T13:59:37.952Z,101281.69
2023-02-05T14:02:24.549Z,101266.94
2023-02-05T14:04:54.838Z,101288.47
2023-02-05T14:07:44.186Z,101274.91
2023-02-05T14:10:28.389Z,101264.47
2023-02-05T14:13:19.397Z,101267.63
2023-02-05T14:15:46.408Z,101268.53
2023-02-05T14:18:40.825Z,101270.06
2023-02-05T14:21:46.258Z,101276.94
2023-02-05T14:24:40.391Z,101262.44
2023-02-05T14:27:25.825Z,101278.34
2023-02-05T14:29:53.547Z,101264.72
2023-02-05T14:32:26.212Z,101268.13
2023-02-05T14:34:59.761Z,101264.47
2023-02-05T14:37:37.151Z,101268.22
2023-02-05T14:40:25.242Z,101267.16
2023-02-05T14:43:08.439Z,101269.41
2023-02-05T14:45:43.884Z,101283.31
2023-02-05T14:48:28.487Z,101284.38
2023-02-05T14:51:08.231Z,101286.91
2023-02-05T14:53:38.071Z,101290.50
2023-02-05T14:56:05.367Z,101297.97
2023-02-05T14:58:40.934Z,101301.34
2023-02-05T15:01:30.475Z,101300.38
2023-02-05T15:04:02.130Z,101291.72
2023-02-05T15:06:30.591Z,101295.44
2023-02-05T15:09:17.098Z,101308.88
2023-02-05T15:12:14.396Z,101314.25
2023-02-05T15:14:51.975Z,101320.22
2023-02-05T15:17:32.230Z,101310.66
2023-02-05T15:20:05.936Z,101315.59
2023-02-05T15:22:38.511Z,101318.88
2023-02-05T15:25:14.828Z,101312.44
2023-02-05T15:27:49.860Z,101310.38
2023-02-05T15:30:22.253Z,101307.69
2023-02-05T15:32:53.954Z,101312.63
2023-02-05T15:35:25.245Z,101315.06
2023-02-05T15:37:55.961Z,101301.63
2023-02-05T15:40:26.919Z,101313.44
2023-02-05T15:42:58.400Z,101323.41
2023-02-05T15:45:28.587Z,101312.00
2023-02-05T15:48:02.941Z,101304.56
2023-02-05T15:50:31.217Z,101316.97
2023-02-05T15:52:58.204Z,101327.72
2023-02-05T15:55:27.676Z,101308.06
2023-02-05T15:58:00.665Z,101313.44
2023-02-05T16:00:30.110Z,101314.69
2023-02-05T16:02:58.950Z,101313.06
2023-02-05T16:05:27.097Z,101318.44
2023-02-05T16:07:58.883Z,101305.00
2023-02-05T16:10:28.325Z,101316.34
2023-02-05T16:12:57.919Z,101329.19
2023-02-05T16:15:31.069Z,101318.22
2023-02-05T16:18:01.797Z,101315.75
2023-02-05T16:20:34.365Z,101327.94
2023-02-05T16:23:06.286Z,101328.78
2023-02-05T16:25:42.115Z,101317.19
2023-02-05T16:28:18.159Z,101349.06
2023-02-05T16:30:48.248Z,101343.06
2023-02-05T16:33:38.144Z,101338.75
2023-02-05T16:36:15.136Z,101345.75
2023-02-05T16:38:41.778Z,101358.41
2023-02-05T16:41:30.712Z,101364.00
2023-02-05T16:44:01.119Z,101371.59
2023-02-05T16:46:31.827Z,101369.53
2023-02-05T16:49:04.563Z,101360.41
2023-02-05T16:51:51.465Z,101372.22
2023-02-05T16:54:17.961Z,101371.41
2023-02-05T16:56:47.397Z,101365.78
2023-02-05T16:59:21.308Z,101374.69
2023-02-05T17:01:48.022Z,101387.56
2023-02-05T17:04:30.807Z,101392.50
2023-02-05T17:07:00.098Z,101393.56
2023-02-05T17:09:35.963Z,101399.19
2023-02-05T17:12:27.340Z,101411.78
2023-02-05T17:14:56.409Z,101408.06
2023-02-05T17:17:25.050Z,101407.47
2023-02-05T17:20:10.026Z,101411.66
2023-02-05T17:22:36.658Z,101406.28
2023-02-05T17:25:05.675Z,101411.66
2023-02-05T17:27:37.065Z,101418.06
2023-02-05T17:30:10.841Z,101421.56
2023-02-05T17:32:37.827Z,101421.22
2023-02-05T17:35:16.539Z,101421.22
2023-02-05T17:37:43.402Z,101432.78
2023-02-05T17:40:13.081Z,101419.56
2023-02-05T17:42:39.788Z,101420.38
2023-02-05T17:45:28.577Z,101423.31
2023-02-05T17:47:55.226Z,101414.19
2023-02-05T17:50:23.516Z,101408.81
2023-02-05T17:52:52.213Z,101424.09
2023-02-05T17:55:20.256Z,101427.03
2023-02-05T17:57:47.127Z,101432.41
2023-02-05T18:00:17.447Z,101420.00
2023-02-05T18:02:44.064Z,101442.34
2023-02-05T18:05:13.720Z,101436.97
2023-02-05T18:07:47.649Z,101420.63
2023-02-05T18:10:19.324Z,101428.69
2023-02-05T18:12:45.976Z,101438.59
2023-02-05T18:15:12.841Z,101436.97
2023-02-05T18:17:40.457Z,101446.88
2023-02-05T18:20:08.643Z,101437.41
2023-02-05T18:22:35.528Z,101436.56
2023-02-05T18:25:02.267Z,101441.16
2023-02-05T18:27:28.865Z,101444.03
2023-02-05T18:29:55.465Z,101442.41
2023-02-05T18:32:22.526Z,101443.00
2023-02-05T18:34:49.320Z,101435.38
2023-02-05T18:37:16.690Z,101431.63
2023-02-05T18:39:43.914Z,101430.59
2023-02-05T18:42:12.764Z,101427.56
2023-02-05T18:44:39.933Z,101429.63
2023-02-05T18:47:07.290Z,101433.13
2023-02-05T18:49:34.936Z,101431.28
2023-02-05T18:52:02.139Z,101435.81
2023-02-05T18:54:28.923Z,101440.16
2023-02-05T18:56:56.445Z,101454.63
2023-02-05T18:59:25.691Z,101454.03
2023-02-05T19:01:52.832Z,101471.22
2023-02-05T19:04:21.010Z,101459.88
2023-02-05T19:06:53.403Z,101479.72
2023-02-05T19:09:22.224Z,101478.06
2023-02-05T19:11:49.558Z,101481.22
2023-02-05T19:14:18.721Z,101487.84
2023-02-05T19:16:47.161Z,101489.69
2023-02-05T19:19:20.144Z,101498.78
2023-02-05T19:21:48.821Z,101497.16
2023-02-05T19:24:17.323Z,101485.59
2023-02-05T19:26:44.843Z,101489.09
2023-02-05T19:29:17.106Z,101486.41
2023-02-05T19:31:44.999Z,101476.69
2023-02-05T19:34:12.028Z,101485.59
2023-02-05T19:36:39.046Z,101488.28
2023-02-05T19:39:08.314Z,101497.38
2023-02-05T19:41:36.925Z,101498.19
2023-02-05T19:44:06.031Z,101505.81
2023-02-05T19:46:36.844Z,101498.78
2023-02-05T19:49:11.754Z,101494.91
2023-02-05T19:51:38.682Z,101498.44
2023-02-05T19:54:06.687Z,101493.25
2023-02-05T19:56:35.695Z,101486.03
2023-02-05T19:59:02.294Z,101498.03
2023-02-05T20:01:30.969Z,101478.63
2023-02-05T20:04:06.002Z,101503.00
2023-02-05T20:06:32.642Z,101492.72
2023-02-05T20:09:01.030Z,101499.97
2023-02-05T20:11:30.308Z,101508.03
2023-02-05T20:14:00.564Z,101503.09
2023-02-05T20:16:27.467Z,101512.78
2023-02-05T20:18:55.934Z,101502.03
2023-02-05T20:21:23.254Z,101505.34
2023-02-05T20:23:50.523Z,101508.81
2023-02-05T20:26:22.212Z,101533.84
2023-02-05T20:29:12.856Z,101525.19
2023-02-05T20:31:43.539Z,101534.28
2023-02-05T20:34:22.605Z,101541.75
2023-02-05T20:36:58.340Z,101542.16
2023-02-05T20:39:28.775Z,101545.69
2023-02-05T20:41:57.964Z,101541.94
2023-02-05T20:44:32.084Z,101539.47
2023-02-05T20:46:58.764Z,101544.44
2023-02-05T20:49:25.704Z,101536.38
2023-02-05T20:51:53.263Z,101543.59
2023-02-05T20:54:20.542Z,101540.09
2023-02-05T20:56:50.226Z,101537.41
2023-02-05T20:59:16.787Z,101536.78
2023-02-05T21:01:43.430Z,101543.19
2023-02-05T21:04:10.199Z,101545.28
2023-02-05T21:06:39.623Z,101553.34
2023-02-05T21:09:07.598Z,101547.34
2023-02-05T21:11:34.256Z,101551.31
2023-02-05T21:14:00.916Z,101554.81
2023-02-05T21:16:28.010Z,101553.78
2023-02-05T21:18:55.330Z,101554.00
2023-02-05T21:21:28.036Z,101565.56
2023-02-05T21:23:56.987Z,101554.00
2023-02-05T21:26:29.227Z,101555.66
2023-02-05T21:28:58.871Z,101560.63
2023-02-05T21:31:33.724Z,101561.06
2023-02-05T21:34:05.710Z,101561.50
2023-02-05T21:36:32.667Z,101567.66
2023-02-05T21:38:59.300Z,101572.44
2023-02-05T21:41:26.204Z,101573.28
2023-02-05T21:43:57.621Z,101566.03
2023-02-05T21:46:25.702Z,101566.47
2023-02-05T21:48:55.078Z,101585.69
2023-02-05T21:51:24.478Z,101577.63
2023-02-05T21:53:57.385Z,101582.16
2023-02-05T21:56:29.722Z,101593.56
2023-02-05T21:58:56.603Z,101578.44
2023-02-05T22:01:26.395Z,101584.84
2023-02-05T22:03:59.504Z,101592.91
2023-02-05T22:06:28.500Z,101594.56
2023-02-05T22:08:56.379Z,101597.25
2023-02-05T22:11:24.194Z,101590.22
2023-02-05T22:13:52.896Z,101588.38
2023-02-05T22:16:25.320Z,101594.56
2023-02-05T22:18:52.910Z,101590.44
2023-02-05T22:21:19.400Z,101590.44
2023-02-05T22:23:50.549Z,101586.91
2023-02-05T22:26:19.102Z,101577.19
2023-02-05T22:28:46.404Z,101594.56
2023-02-05T22:31:15.221Z,101599.56
2023-02-05T22:33:44.252Z,101593.16
2023-02-05T22:36:12.265Z,101598.97
2023-02-05T22:38:40.516Z,101595.06
2023-02-05T22:41:12.313Z,101595.28
2023-02-05T22:43:39.451Z,101595.06
2023-02-05T22:46:15.360Z,101598.78
2023-02-05T22:48:44.014Z,101614.47
2023-02-05T22:51:13.636Z,101613.22
2023-02-05T22:53:40.320Z,101608.25
2023-02-05T22:56:09.646Z,101604.53
2023-02-05T22:58:39.206Z,101595.84
2023-02-05T23:01:10.686Z,101605.34
2023-02-05T23:03:38.804Z,101618.56
2023-02-05T23:06:20.577Z,101621.47
2023-02-05T23:08:52.628Z,101614.66
2023-02-05T23:11:19.836Z,101611.78
2023-02-05T23:13:46.609Z,101618.97
2023-02-05T23:16:15.303Z,101614.66
2023-02-05T23:18:43.019Z,101628.91
2023-02-05T23:21:12.282Z,101627.03
2023-02-05T23:23:38.873Z,101630.56
2023-02-05T23:26:10.353Z,101627.66
2023-02-05T23:28:36.999Z,101623.94
2023-02-05T23:31:04.410Z,101622.09
2023-02-05T23:33:32.146Z,101609.47
2023-02-05T23:35:59.043Z,101612.16
2023-02-05T23:38:25.927Z,101616.09
2023-02-05T23:40:54.322Z,101618.97
2023-02-05T23:43:21.614Z,101619.41
2023-02-05T23:45:49.617Z,101621.50
2023-02-05T23:48:16.188Z,101621.09
2023-02-05T23:50:43.821Z,101622.97
2023-02-05T23:53:13.499Z,101622.13
2023-02-05T23:55:44.112Z,101633.69
2023-02-05T23:58:11.166Z,101638.03
